sensor_id;sensor_type;location;lat;lon;timestamp;P1;durP1;ratioP1;P2;durP2;ratioP2
908;SDS011;441;51.192;6.788;2023-10-13T00:02:03;17.40;;;16.90;;
908;SDS011;441;51.192;6.788;2023-10-13T00:04:30;17.10;;;16.50;;
908;SDS011;441;51.192;6.788;2023-10-13T00:07:01;17.57;;;16.97;;
908;SDS011;441;51.192;6.788;2023-10-13T00:09:29;17.80;;;17.20;;
908;SDS011;441;51.192;6.788;2023-10-13T00:11:58;17.20;;;16.70;;
908;SDS011;441;51.192;6.788;2023-10-13T00:14:26;18.73;;;18.13;;
908;SDS011;441;51.192;6.788;2023-10-13T00:17:00;19.30;;;18.50;;
908;SDS011;441;51.192;6.788;2023-10-13T00:19:29;18.70;;;18.00;;
908;SDS011;441;51.192;6.788;2023-10-13T00:22:03;18.40;;;17.70;;
908;SDS011;441;51.192;6.788;2023-10-13T00:24:35;18.40;;;17.70;;
908;SDS011;441;51.192;6.788;2023-10-13T00:27:08;18.57;;;17.90;;
908;SDS011;441;51.192;6.788;2023-10-13T00:29:50;18.10;;;17.30;;
908;SDS011;441;51.192;6.788;2023-10-13T00:32:29;19.30;;;18.50;;
908;SDS011;441;51.192;6.788;2023-10-13T00:35:02;18.63;;;17.97;;
908;SDS011;441;51.192;6.788;2023-10-13T00:37:31;18.37;;;17.77;;
908;SDS011;441;51.192;6.788;2023-10-13T00:40:07;17.37;;;16.77;;
908;SDS011;441;51.192;6.788;2023-10-13T00:42:44;17.63;;;16.90;;
908;SDS011;441;51.192;6.788;2023-10-13T00:45:17;18.00;;;17.40;;
908;SDS011;441;51.192;6.788;2023-10-13T00:47:43;18.77;;;18.13;;
908;SDS011;441;51.192;6.788;2023-10-13T00:50:14;18.93;;;18.13;;
908;SDS011;441;51.192;6.788;2023-10-13T00:52:43;18.13;;;17.53;;
908;SDS011;441;51.192;6.788;2023-10-13T00:55:12;18.60;;;17.90;;
908;SDS011;441;51.192;6.788;2023-10-13T00:57:42;18.40;;;17.80;;
908;SDS011;441;51.192;6.788;2023-10-13T01:00:08;18.47;;;17.87;;
908;SDS011;441;51.192;6.788;2023-10-13T01:02:45;19.23;;;18.53;;
908;SDS011;441;51.192;6.788;2023-10-13T01:05:19;17.33;;;16.80;;
908;SDS011;441;51.192;6.788;2023-10-13T01:07:47;18.53;;;17.80;;
908;SDS011;441;51.192;6.788;2023-10-13T01:10:18;18.23;;;17.47;;
908;SDS011;441;51.192;6.788;2023-10-13T01:12:45;18.80;;;18.10;;
908;SDS011;441;51.192;6.788;2023-10-13T01:15:12;18.17;;;17.40;;
908;SDS011;441;51.192;6.788;2023-10-13T01:17:45;17.20;;;16.63;;
908;SDS011;441;51.192;6.788;2023-10-13T01:20:11;17.97;;;17.37;;
908;SDS011;441;51.192;6.788;2023-10-13T01:22:45;17.67;;;17.07;;
908;SDS011;441;51.192;6.788;2023-10-13T01:25:21;19.37;;;18.47;;
908;SDS011;441;51.192;6.788;2023-10-13T01:27:51;17.70;;;17.10;;
908;SDS011;441;51.192;6.788;2023-10-13T01:30:17;18.00;;;17.30;;
908;SDS011;441;51.192;6.788;2023-10-13T01:32:49;17.87;;;17.33;;
908;SDS011;441;51.192;6.788;2023-10-13T01:35:16;18.40;;;17.70;;
908;SDS011;441;51.192;6.788;2023-10-13T01:37:49;19.30;;;18.50;;
908;SDS011;441;51.192;6.788;2023-10-13T01:40:15;18.40;;;17.80;;
908;SDS011;441;51.192;6.788;2023-10-13T01:42:46;18.60;;;18.00;;
908;SDS011;441;51.192;6.788;2023-10-13T01:45:20;19.10;;;18.40;;
908;SDS011;441;51.192;6.788;2023-10-13T01:47:46;17.53;;;16.93;;
908;SDS011;441;51.192;6.788;2023-10-13T01:50:15;17.70;;;17.10;;
908;SDS011;441;51.192;6.788;2023-10-13T01:52:46;18.43;;;17.83;;
908;SDS011;441;51.192;6.788;2023-10-13T01:55:13;18.60;;;18.00;;
908;SDS011;441;51.192;6.788;2023-10-13T01:57:40;18.50;;;17.80;;
908;SDS011;441;51.192;6.788;2023-10-13T02:00:09;17.73;;;17.13;;
908;SDS011;441;51.192;6.788;2023-10-13T02:02:43;18.83;;;18.23;;
908;SDS011;441;51.192;6.788;2023-10-13T02:05:10;19.43;;;18.83;;
908;SDS011;441;51.192;6.788;2023-10-13T02:07:41;19.03;;;18.33;;
908;SDS011;441;51.192;6.788;2023-10-13T02:10:10;20.13;;;19.43;;
908;SDS011;441;51.192;6.788;2023-10-13T02:12:38;18.10;;;17.50;;
908;SDS011;441;51.192;6.788;2023-10-13T02:15:09;18.57;;;17.87;;
908;SDS011;441;51.192;6.788;2023-10-13T02:17:37;17.27;;;16.70;;
908;SDS011;441;51.192;6.788;2023-10-13T02:20:08;18.13;;;17.53;;
908;SDS011;441;51.192;6.788;2023-10-13T02:22:39;18.53;;;17.93;;
908;SDS011;441;51.192;6.788;2023-10-13T02:25:14;17.87;;;17.27;;
908;SDS011;441;51.192;6.788;2023-10-13T02:27:59;17.70;;;17.17;;
908;SDS011;441;51.192;6.788;2023-10-13T02:30:27;16.70;;;16.20;;
908;SDS011;441;51.192;6.788;2023-10-13T02:32:54;18.97;;;18.10;;
908;SDS011;441;51.192;6.788;2023-10-13T02:35:20;17.33;;;16.73;;
908;SDS011;441;51.192;6.788;2023-10-13T02:37:55;17.23;;;16.67;;
908;SDS011;441;51.192;6.788;2023-10-13T02:40:23;17.77;;;17.17;;
908;SDS011;441;51.192;6.788;2023-10-13T02:42:50;16.83;;;16.33;;
908;SDS011;441;51.192;6.788;2023-10-13T02:45:16;17.60;;;17.10;;
908;SDS011;441;51.192;6.788;2023-10-13T02:47:48;18.57;;;17.87;;
908;SDS011;441;51.192;6.788;2023-10-13T02:50:34;19.37;;;18.67;;
908;SDS011;441;51.192;6.788;2023-10-13T02:53:03;17.70;;;17.00;;
908;SDS011;441;51.192;6.788;2023-10-13T02:55:30;18.07;;;17.53;;
908;SDS011;441;51.192;6.788;2023-10-13T02:57:57;18.00;;;17.40;;
908;SDS011;441;51.192;6.788;2023-10-13T03:00:23;17.63;;;17.03;;
908;SDS011;441;51.192;6.788;2023-10-13T03:02:58;19.10;;;18.50;;
908;SDS011;441;51.192;6.788;2023-10-13T03:05:24;18.60;;;18.00;;
908;SDS011;441;51.192;6.788;2023-10-13T03:07:54;18.70;;;18.10;;
908;SDS011;441;51.192;6.788;2023-10-13T03:10:20;18.20;;;17.53;;
908;SDS011;441;51.192;6.788;2023-10-13T03:12:54;17.10;;;16.60;;
908;SDS011;441;51.192;6.788;2023-10-13T03:15:20;18.60;;;17.90;;
908;SDS011;441;51.192;6.788;2023-10-13T03:17:57;17.60;;;17.00;;
908;SDS011;441;51.192;6.788;2023-10-13T03:20:24;18.63;;;18.03;;
908;SDS011;441;51.192;6.788;2023-10-13T03:22:56;16.30;;;15.80;;
908;SDS011;441;51.192;6.788;2023-10-13T03:25:22;17.13;;;16.63;;
908;SDS011;441;51.192;6.788;2023-10-13T03:27:54;18.40;;;17.80;;
908;SDS011;441;51.192;6.788;2023-10-13T03:30:27;18.30;;;17.60;;
908;SDS011;441;51.192;6.788;2023-10-13T03:33:01;18.53;;;17.60;;
908;SDS011;441;51.192;6.788;2023-10-13T03:35:32;18.13;;;17.63;;
908;SDS011;441;51.192;6.788;2023-10-13T03:38:04;18.20;;;17.60;;
908;SDS011;441;51.192;6.788;2023-10-13T03:40:39;18.63;;;17.93;;
908;SDS011;441;51.192;6.788;2023-10-13T03:43:06;18.50;;;17.90;;
908;SDS011;441;51.192;6.788;2023-10-13T03:45:36;17.37;;;16.77;;
908;SDS011;441;51.192;6.788;2023-10-13T03:48:06;18.80;;;18.20;;
908;SDS011;441;51.192;6.788;2023-10-13T03:50:53;18.57;;;17.90;;
908;SDS011;441;51.192;6.788;2023-10-13T03:53:28;19.60;;;18.90;;
908;SDS011;441;51.192;6.788;2023-10-13T03:55:58;18.50;;;17.87;;
908;SDS011;441;51.192;6.788;2023-10-13T03:58:34;18.97;;;18.37;;
908;SDS011;441;51.192;6.788;2023-10-13T04:01:01;18.73;;;18.03;;
908;SDS011;441;51.192;6.788;2023-10-13T04:03:30;18.60;;;18.00;;
908;SDS011;441;51.192;6.788;2023-10-13T04:06:01;18.97;;;18.37;;
908;SDS011;441;51.192;6.788;2023-10-13T04:08:33;19.33;;;18.63;;
908;SDS011;441;51.192;6.788;2023-10-13T04:11:14;19.40;;;18.60;;
908;SDS011;441;51.192;6.788;2023-10-13T04:13:58;21.00;;;20.30;;
908;SDS011;441;51.192;6.788;2023-10-13T04:16:39;20.10;;;19.40;;
908;SDS011;441;51.192;6.788;2023-10-13T04:19:17;20.57;;;19.87;;
908;SDS011;441;51.192;6.788;2023-10-13T04:21:49;20.00;;;19.30;;
908;SDS011;441;51.192;6.788;2023-10-13T04:24:39;20.17;;;19.47;;
908;SDS011;441;51.192;6.788;2023-10-13T04:27:19;20.07;;;19.47;;
908;SDS011;441;51.192;6.788;2023-10-13T04:30:09;18.90;;;18.30;;
908;SDS011;441;51.192;6.788;2023-10-13T04:32:36;20.67;;;19.97;;
908;SDS011;441;51.192;6.788;2023-10-13T04:35:12;19.73;;;18.93;;
908;SDS011;441;51.192;6.788;2023-10-13T04:37:43;19.50;;;18.80;;
908;SDS011;441;51.192;6.788;2023-10-13T04:40:19;18.97;;;18.30;;
908;SDS011;441;51.192;6.788;2023-10-13T04:42:49;19.93;;;19.13;;
908;SDS011;441;51.192;6.788;2023-10-13T04:45:19;21.10;;;19.93;;
908;SDS011;441;51.192;6.788;2023-10-13T04:48:04;21.40;;;20.03;;
908;SDS011;441;51.192;6.788;2023-10-13T04:50:58;25.83;;;23.60;;
908;SDS011;441;51.192;6.788;2023-10-13T04:53:40;28.30;;;25.53;;
908;SDS011;441;51.192;6.788;2023-10-13T04:56:20;23.90;;;21.47;;
908;SDS011;441;51.192;6.788;2023-10-13T04:59:04;23.00;;;21.00;;
908;SDS011;441;51.192;6.788;2023-10-13T05:02:00;25.60;;;23.30;;
908;SDS011;441;51.192;6.788;2023-10-13T05:04:41;24.73;;;21.93;;
908;SDS011;441;51.192;6.788;2023-10-13T05:07:23;24.17;;;22.03;;
908;SDS011;441;51.192;6.788;2023-10-13T05:10:08;24.27;;;22.57;;
908;SDS011;441;51.192;6.788;2023-10-13T05:12:52;26.80;;;24.67;;
908;SDS011;441;51.192;6.788;2023-10-13T05:15:42;22.70;;;20.80;;
908;SDS011;441;51.192;6.788;2023-10-13T05:18:27;22.03;;;20.30;;
908;SDS011;441;51.192;6.788;2023-10-13T05:21:07;23.23;;;21.47;;
908;SDS011;441;51.192;6.788;2023-10-13T05:23:53;22.67;;;21.30;;
908;SDS011;441;51.192;6.788;2023-10-13T05:26:37;22.27;;;20.80;;
908;SDS011;441;51.192;6.788;2023-10-13T05:29:21;25.30;;;23.10;;
908;SDS011;441;51.192;6.788;2023-10-13T05:32:05;23.30;;;21.80;;
908;SDS011;441;51.192;6.788;2023-10-13T05:34:50;22.87;;;21.23;;
908;SDS011;441;51.192;6.788;2023-10-13T05:37:34;22.90;;;21.40;;
908;SDS011;441;51.192;6.788;2023-10-13T05:40:19;23.10;;;21.60;;
908;SDS011;441;51.192;6.788;2023-10-13T05:43:04;22.53;;;21.30;;
908;SDS011;441;51.192;6.788;2023-10-13T05:45:48;22.40;;;20.80;;
908;SDS011;441;51.192;6.788;2023-10-13T05:48:34;20.77;;;19.67;;
908;SDS011;441;51.192;6.788;2023-10-13T05:51:28;22.07;;;20.27;;
908;SDS011;441;51.192;6.788;2023-10-13T05:53:58;21.40;;;20.00;;
908;SDS011;441;51.192;6.788;2023-10-13T05:56:45;21.87;;;20.67;;
908;SDS011;441;51.192;6.788;2023-10-13T05:59:30;21.10;;;19.87;;
908;SDS011;441;51.192;6.788;2023-10-13T06:02:16;23.60;;;22.00;;
908;SDS011;441;51.192;6.788;2023-10-13T06:05:01;23.93;;;22.60;;
908;SDS011;441;51.192;6.788;2023-10-13T06:07:46;22.70;;;21.33;;
908;SDS011;441;51.192;6.788;2023-10-13T06:10:31;21.93;;;20.60;;
908;SDS011;441;51.192;6.788;2023-10-13T06:13:16;23.43;;;22.13;;
908;SDS011;441;51.192;6.788;2023-10-13T06:16:04;24.47;;;23.10;;
908;SDS011;441;51.192;6.788;2023-10-13T06:18:48;23.70;;;22.40;;
908;SDS011;441;51.192;6.788;2023-10-13T06:21:32;20.17;;;19.17;;
908;SDS011;441;51.192;6.788;2023-10-13T06:24:16;21.33;;;19.83;;
908;SDS011;441;51.192;6.788;2023-10-13T06:27:01;20.30;;;19.37;;
908;SDS011;441;51.192;6.788;2023-10-13T06:29:47;22.80;;;21.40;;
908;SDS011;441;51.192;6.788;2023-10-13T06:32:14;21.00;;;19.77;;
908;SDS011;441;51.192;6.788;2023-10-13T06:34:41;22.00;;;20.43;;
908;SDS011;441;51.192;6.788;2023-10-13T06:37:10;22.60;;;21.20;;
908;SDS011;441;51.192;6.788;2023-10-13T06:39:48;21.73;;;20.40;;
908;SDS011;441;51.192;6.788;2023-10-13T06:42:15;20.70;;;19.83;;
908;SDS011;441;51.192;6.788;2023-10-13T06:44:44;19.53;;;18.63;;
908;SDS011;441;51.192;6.788;2023-10-13T06:47:13;21.63;;;20.33;;
908;SDS011;441;51.192;6.788;2023-10-13T06:49:40;19.97;;;19.00;;
908;SDS011;441;51.192;6.788;2023-10-13T06:52:08;20.80;;;19.50;;
908;SDS011;441;51.192;6.788;2023-10-13T06:54:35;21.30;;;20.23;;
908;SDS011;441;51.192;6.788;2023-10-13T06:57:04;21.90;;;20.70;;
908;SDS011;441;51.192;6.788;2023-10-13T06:59:32;21.63;;;20.50;;
908;SDS011;441;51.192;6.788;2023-10-13T07:02:00;21.23;;;20.20;;
908;SDS011;441;51.192;6.788;2023-10-13T07:04:32;22.80;;;21.60;;
908;SDS011;441;51.192;6.788;2023-10-13T07:06:59;22.57;;;21.10;;
908;SDS011;441;51.192;6.788;2023-10-13T07:09:31;22.07;;;21.03;;
908;SDS011;441;51.192;6.788;2023-10-13T07:12:07;21.10;;;20.20;;
908;SDS011;441;51.192;6.788;2023-10-13T07:14:44;21.67;;;20.40;;
908;SDS011;441;51.192;6.788;2023-10-13T07:17:16;21.50;;;20.30;;
908;SDS011;441;51.192;6.788;2023-10-13T07:19:50;20.73;;;19.60;;
908;SDS011;441;51.192;6.788;2023-10-13T07:22:21;19.97;;;18.63;;
908;SDS011;441;51.192;6.788;2023-10-13T07:24:50;20.63;;;19.53;;
908;SDS011;441;51.192;6.788;2023-10-13T07:27:18;20.33;;;19.20;;
908;SDS011;441;51.192;6.788;2023-10-13T07:29:49;21.10;;;20.20;;
908;SDS011;441;51.192;6.788;2023-10-13T07:32:22;21.77;;;20.80;;
908;SDS011;441;51.192;6.788;2023-10-13T07:34:55;20.67;;;19.87;;
908;SDS011;441;51.192;6.788;2023-10-13T07:37:22;20.93;;;20.00;;
908;SDS011;441;51.192;6.788;2023-10-13T07:39:54;20.80;;;19.70;;
908;SDS011;441;51.192;6.788;2023-10-13T07:42:24;20.47;;;19.43;;
908;SDS011;441;51.192;6.788;2023-10-13T07:44:57;19.70;;;18.60;;
908;SDS011;441;51.192;6.788;2023-10-13T07:47:24;19.70;;;18.80;;
908;SDS011;441;51.192;6.788;2023-10-13T07:49:54;21.60;;;20.50;;
908;SDS011;441;51.192;6.788;2023-10-13T07:52:22;21.27;;;20.13;;
908;SDS011;441;51.192;6.788;2023-10-13T07:55:02;20.77;;;19.73;;
908;SDS011;441;51.192;6.788;2023-10-13T07:57:39;21.30;;;20.40;;
908;SDS011;441;51.192;6.788;2023-10-13T08:00:19;20.90;;;20.10;;
908;SDS011;441;51.192;6.788;2023-10-13T08:02:55;21.07;;;20.00;;
908;SDS011;441;51.192;6.788;2023-10-13T08:05:34;21.07;;;20.17;;
908;SDS011;441;51.192;6.788;2023-10-13T08:08:21;20.83;;;19.80;;
908;SDS011;441;51.192;6.788;2023-10-13T08:10:50;20.23;;;19.43;;
908;SDS011;441;51.192;6.788;2023-10-13T08:13:22;20.27;;;19.43;;
908;SDS011;441;51.192;6.788;2023-10-13T08:15:49;22.83;;;21.80;;
908;SDS011;441;51.192;6.788;2023-10-13T08:18:17;21.30;;;20.40;;
908;SDS011;441;51.192;6.788;2023-10-13T08:20:56;22.70;;;21.40;;
908;SDS011;441;51.192;6.788;2023-10-13T08:23:28;21.20;;;20.40;;
908;SDS011;441;51.192;6.788;2023-10-13T08:26:23;21.40;;;20.60;;
908;SDS011;441;51.192;6.788;2023-10-13T08:29:08;22.90;;;21.97;;
908;SDS011;441;51.192;6.788;2023-10-13T08:31:58;21.70;;;20.80;;
908;SDS011;441;51.192;6.788;2023-10-13T08:34:40;20.53;;;19.73;;
908;SDS011;441;51.192;6.788;2023-10-13T08:37:26;21.53;;;20.63;;
908;SDS011;441;51.192;6.788;2023-10-13T08:40:00;23.80;;;22.63;;
908;SDS011;441;51.192;6.788;2023-10-13T08:42:44;21.30;;;20.43;;
908;SDS011;441;51.192;6.788;2023-10-13T08:45:35;22.10;;;21.27;;
908;SDS011;441;51.192;6.788;2023-10-13T08:48:24;23.30;;;22.20;;
908;SDS011;441;51.192;6.788;2023-10-13T08:50:57;23.37;;;22.43;;
908;SDS011;441;51.192;6.788;2023-10-13T08:53:41;23.17;;;22.07;;
908;SDS011;441;51.192;6.788;2023-10-13T08:56:12;21.43;;;20.53;;
908;SDS011;441;51.192;6.788;2023-10-13T08:58:43;22.73;;;21.87;;
908;SDS011;441;51.192;6.788;2023-10-13T09:01:30;22.30;;;21.40;;
908;SDS011;441;51.192;6.788;2023-10-13T09:04:02;22.37;;;21.47;;
908;SDS011;441;51.192;6.788;2023-10-13T09:06:50;23.43;;;22.43;;
908;SDS011;441;51.192;6.788;2023-10-13T09:09:33;23.10;;;22.17;;
908;SDS011;441;51.192;6.788;2023-10-13T09:12:25;22.83;;;21.83;;
908;SDS011;441;51.192;6.788;2023-10-13T09:15:04;23.47;;;22.40;;
908;SDS011;441;51.192;6.788;2023-10-13T09:17:45;23.60;;;22.60;;
908;SDS011;441;51.192;6.788;2023-10-13T09:20:17;21.83;;;20.90;;
908;SDS011;441;51.192;6.788;2023-10-13T09:22:58;22.40;;;21.60;;
908;SDS011;441;51.192;6.788;2023-10-13T09:25:35;22.77;;;21.70;;
908;SDS011;441;51.192;6.788;2023-10-13T09:28:10;22.27;;;21.37;;
908;SDS011;441;51.192;6.788;2023-10-13T09:30:43;23.73;;;22.83;;
908;SDS011;441;51.192;6.788;2023-10-13T09:33:11;22.40;;;21.70;;
908;SDS011;441;51.192;6.788;2023-10-13T09:35:41;23.40;;;22.23;;
908;SDS011;441;51.192;6.788;2023-10-13T09:38:14;22.27;;;21.57;;
908;SDS011;441;51.192;6.788;2023-10-13T09:40:43;22.30;;;21.50;;
908;SDS011;441;51.192;6.788;2023-10-13T09:43:16;22.27;;;21.43;;
908;SDS011;441;51.192;6.788;2023-10-13T09:45:45;21.53;;;20.80;;
908;SDS011;441;51.192;6.788;2023-10-13T09:48:31;21.37;;;20.57;;
908;SDS011;441;51.192;6.788;2023-10-13T09:51:01;22.30;;;21.40;;
908;SDS011;441;51.192;6.788;2023-10-13T09:53:29;23.07;;;22.10;;
908;SDS011;441;51.192;6.788;2023-10-13T09:56:00;21.60;;;20.90;;
908;SDS011;441;51.192;6.788;2023-10-13T09:58:42;21.20;;;20.33;;
908;SDS011;441;51.192;6.788;2023-10-13T10:01:17;22.03;;;21.23;;
908;SDS011;441;51.192;6.788;2023-10-13T10:04:05;25.00;;;23.93;;
908;SDS011;441;51.192;6.788;2023-10-13T10:06:34;23.50;;;22.60;;
908;SDS011;441;51.192;6.788;2023-10-13T10:09:04;21.97;;;21.13;;
908;SDS011;441;51.192;6.788;2023-10-13T10:14:46;24.40;;;23.50;;
908;SDS011;441;51.192;6.788;2023-10-13T10:17:38;24.33;;;23.30;;
908;SDS011;441;51.192;6.788;2023-10-13T10:20:07;23.07;;;22.17;;
908;SDS011;441;51.192;6.788;2023-10-13T10:22:54;24.83;;;23.93;;
908;SDS011;441;51.192;6.788;2023-10-13T10:25:28;23.53;;;22.73;;
908;SDS011;441;51.192;6.788;2023-10-13T10:28:01;23.43;;;22.43;;
908;SDS011;441;51.192;6.788;2023-10-13T10:30:31;23.70;;;22.60;;
908;SDS011;441;51.192;6.788;2023-10-13T10:33:00;21.87;;;21.07;;
908;SDS011;441;51.192;6.788;2023-10-13T10:35:32;24.10;;;23.20;;
908;SDS011;441;51.192;6.788;2023-10-13T10:38:08;23.00;;;22.20;;
908;SDS011;441;51.192;6.788;2023-10-13T10:40:50;23.97;;;23.17;;
908;SDS011;441;51.192;6.788;2023-10-13T10:43:23;22.90;;;22.03;;
908;SDS011;441;51.192;6.788;2023-10-13T10:45:53;22.60;;;21.80;;
908;SDS011;441;51.192;6.788;2023-10-13T10:48:24;23.27;;;22.47;;
908;SDS011;441;51.192;6.788;2023-10-13T10:50:56;23.10;;;22.30;;
908;SDS011;441;51.192;6.788;2023-10-13T10:53:31;21.90;;;21.10;;
908;SDS011;441;51.192;6.788;2023-10-13T10:56:08;22.83;;;22.03;;
908;SDS011;441;51.192;6.788;2023-10-13T10:59:03;22.70;;;21.83;;
908;SDS011;441;51.192;6.788;2023-10-13T11:01:42;21.47;;;20.67;;
908;SDS011;441;51.192;6.788;2023-10-13T11:04:13;21.97;;;21.07;;
908;SDS011;441;51.192;6.788;2023-10-13T11:06:47;22.50;;;21.60;;
908;SDS011;441;51.192;6.788;2023-10-13T11:09:14;21.60;;;20.90;;
908;SDS011;441;51.192;6.788;2023-10-13T11:11:56;23.27;;;22.40;;
908;SDS011;441;51.192;6.788;2023-10-13T11:14:41;21.60;;;20.80;;
908;SDS011;441;51.192;6.788;2023-10-13T11:17:17;22.90;;;22.10;;
908;SDS011;441;51.192;6.788;2023-10-13T11:19:49;23.53;;;22.63;;
908;SDS011;441;51.192;6.788;2023-10-13T11:22:17;22.17;;;21.40;;
908;SDS011;441;51.192;6.788;2023-10-13T11:24:57;22.20;;;21.40;;
908;SDS011;441;51.192;6.788;2023-10-13T11:27:30;23.27;;;22.37;;
908;SDS011;441;51.192;6.788;2023-10-13T11:30:11;22.93;;;22.13;;
908;SDS011;441;51.192;6.788;2023-10-13T11:32:40;24.63;;;23.73;;
908;SDS011;441;51.192;6.788;2023-10-13T11:35:08;21.57;;;20.87;;
908;SDS011;441;51.192;6.788;2023-10-13T11:37:45;23.27;;;22.47;;
908;SDS011;441;51.192;6.788;2023-10-13T11:40:21;22.70;;;21.90;;
908;SDS011;441;51.192;6.788;2023-10-13T11:43:08;21.57;;;20.77;;
908;SDS011;441;51.192;6.788;2023-10-13T11:45:40;22.60;;;21.77;;
908;SDS011;441;51.192;6.788;2023-10-13T11:48:29;23.77;;;22.97;;
908;SDS011;441;51.192;6.788;2023-10-13T11:51:00;22.20;;;21.30;;
908;SDS011;441;51.192;6.788;2023-10-13T11:53:32;23.00;;;22.20;;
908;SDS011;441;51.192;6.788;2023-10-13T11:56:00;23.53;;;22.53;;
908;SDS011;441;51.192;6.788;2023-10-13T11:58:33;24.23;;;23.23;;
908;SDS011;441;51.192;6.788;2023-10-13T12:01:02;23.60;;;22.80;;
908;SDS011;441;51.192;6.788;2023-10-13T12:03:45;22.63;;;21.83;;
908;SDS011;441;51.192;6.788;2023-10-13T12:06:31;23.30;;;22.40;;
908;SDS011;441;51.192;6.788;2023-10-13T12:09:12;25.60;;;24.70;;
908;SDS011;441;51.192;6.788;2023-10-13T12:11:57;21.53;;;20.73;;
908;SDS011;441;51.192;6.788;2023-10-13T12:14:27;23.33;;;22.43;;
908;SDS011;441;51.192;6.788;2023-10-13T12:16:56;21.43;;;20.63;;
908;SDS011;441;51.192;6.788;2023-10-13T12:19:29;22.83;;;21.93;;
908;SDS011;441;51.192;6.788;2023-10-13T12:21:57;22.60;;;21.80;;
908;SDS011;441;51.192;6.788;2023-10-13T12:24:29;21.90;;;21.00;;
908;SDS011;441;51.192;6.788;2023-10-13T12:27:05;24.33;;;23.53;;
908;SDS011;441;51.192;6.788;2023-10-13T12:29:44;23.23;;;22.43;;
908;SDS011;441;51.192;6.788;2023-10-13T12:32:12;22.57;;;21.77;;
908;SDS011;441;51.192;6.788;2023-10-13T12:34:46;23.40;;;22.60;;
908;SDS011;441;51.192;6.788;2023-10-13T12:37:25;23.77;;;22.80;;
908;SDS011;441;51.192;6.788;2023-10-13T12:40:16;24.03;;;23.13;;
908;SDS011;441;51.192;6.788;2023-10-13T12:43:01;24.30;;;23.50;;
908;SDS011;441;51.192;6.788;2023-10-13T12:45:46;24.00;;;23.20;;
908;SDS011;441;51.192;6.788;2023-10-13T12:48:37;24.03;;;23.17;;
908;SDS011;441;51.192;6.788;2023-10-13T12:51:29;24.37;;;23.50;;
908;SDS011;441;51.192;6.788;2023-10-13T12:54:15;22.77;;;21.77;;
908;SDS011;441;51.192;6.788;2023-10-13T12:56:45;24.70;;;23.80;;
908;SDS011;441;51.192;6.788;2023-10-13T12:59:12;24.70;;;23.80;;
908;SDS011;441;51.192;6.788;2023-10-13T13:01:39;24.40;;;23.50;;
908;SDS011;441;51.192;6.788;2023-10-13T13:04:09;23.70;;;22.80;;
908;SDS011;441;51.192;6.788;2023-10-13T13:06:45;23.40;;;22.50;;
908;SDS011;441;51.192;6.788;2023-10-13T13:09:12;24.50;;;23.50;;
908;SDS011;441;51.192;6.788;2023-10-13T13:11:39;24.20;;;23.30;;
908;SDS011;441;51.192;6.788;2023-10-13T13:14:06;25.07;;;24.17;;
908;SDS011;441;51.192;6.788;2023-10-13T13:16:34;23.63;;;22.83;;
908;SDS011;441;51.192;6.788;2023-10-13T13:19:04;23.00;;;22.20;;
908;SDS011;441;51.192;6.788;2023-10-13T13:21:37;24.50;;;23.60;;
908;SDS011;441;51.192;6.788;2023-10-13T13:24:04;22.20;;;21.40;;
908;SDS011;441;51.192;6.788;2023-10-13T13:26:36;24.40;;;23.40;;
908;SDS011;441;51.192;6.788;2023-10-13T13:29:05;23.17;;;22.27;;
908;SDS011;441;51.192;6.788;2023-10-13T13:31:35;24.53;;;23.47;;
908;SDS011;441;51.192;6.788;2023-10-13T13:34:06;23.77;;;22.87;;
908;SDS011;441;51.192;6.788;2023-10-13T13:36:35;24.50;;;23.60;;
908;SDS011;441;51.192;6.788;2023-10-13T13:39:04;23.93;;;23.03;;
908;SDS011;441;51.192;6.788;2023-10-13T13:41:31;23.17;;;22.37;;
908;SDS011;441;51.192;6.788;2023-10-13T13:43:59;23.10;;;22.30;;
908;SDS011;441;51.192;6.788;2023-10-13T13:46:38;22.60;;;21.80;;
908;SDS011;441;51.192;6.788;2023-10-13T13:49:08;23.50;;;22.30;;
908;SDS011;441;51.192;6.788;2023-10-13T13:51:43;22.30;;;21.50;;
908;SDS011;441;51.192;6.788;2023-10-13T13:54:18;22.80;;;21.63;;
908;SDS011;441;51.192;6.788;2023-10-13T13:56:45;22.87;;;22.07;;
908;SDS011;441;51.192;6.788;2023-10-13T13:59:13;24.97;;;24.17;;
908;SDS011;441;51.192;6.788;2023-10-13T14:01:45;25.80;;;24.90;;
908;SDS011;441;51.192;6.788;2023-10-13T14:04:12;24.63;;;23.73;;
908;SDS011;441;51.192;6.788;2023-10-13T14:06:42;24.57;;;23.67;;
908;SDS011;441;51.192;6.788;2023-10-13T14:09:10;23.67;;;22.77;;
908;SDS011;441;51.192;6.788;2023-10-13T14:11:42;23.20;;;22.20;;
908;SDS011;441;51.192;6.788;2023-10-13T14:14:35;24.03;;;23.13;;
908;SDS011;441;51.192;6.788;2023-10-13T14:17:02;23.70;;;22.80;;
908;SDS011;441;51.192;6.788;2023-10-13T14:19:32;24.10;;;23.20;;
908;SDS011;441;51.192;6.788;2023-10-13T14:21:59;23.60;;;22.67;;
908;SDS011;441;51.192;6.788;2023-10-13T14:24:31;24.77;;;23.77;;
908;SDS011;441;51.192;6.788;2023-10-13T14:27:01;25.27;;;24.27;;
908;SDS011;441;51.192;6.788;2023-10-13T14:29:34;25.30;;;24.30;;
908;SDS011;441;51.192;6.788;2023-10-13T14:32:05;25.80;;;24.80;;
908;SDS011;441;51.192;6.788;2023-10-13T14:34:37;26.10;;;25.00;;
908;SDS011;441;51.192;6.788;2023-10-13T14:37:05;25.77;;;24.87;;
908;SDS011;441;51.192;6.788;2023-10-13T14:39:32;27.80;;;26.47;;
908;SDS011;441;51.192;6.788;2023-10-13T14:42:01;27.47;;;26.13;;
908;SDS011;441;51.192;6.788;2023-10-13T14:44:31;25.33;;;24.33;;
908;SDS011;441;51.192;6.788;2023-10-13T14:46:58;26.13;;;24.90;;
908;SDS011;441;51.192;6.788;2023-10-13T14:49:25;25.53;;;24.33;;
908;SDS011;441;51.192;6.788;2023-10-13T14:51:52;26.13;;;25.03;;
908;SDS011;441;51.192;6.788;2023-10-13T14:54:21;25.57;;;24.57;;
908;SDS011;441;51.192;6.788;2023-10-13T14:56:58;26.13;;;24.83;;
908;SDS011;441;51.192;6.788;2023-10-13T14:59:26;26.10;;;25.10;;
908;SDS011;441;51.192;6.788;2023-10-13T15:01:58;27.83;;;26.60;;
908;SDS011;441;51.192;6.788;2023-10-13T15:04:27;26.67;;;25.17;;
908;SDS011;441;51.192;6.788;2023-10-13T15:06:58;23.93;;;22.83;;
908;SDS011;441;51.192;6.788;2023-10-13T15:09:27;25.57;;;24.50;;
908;SDS011;441;51.192;6.788;2023-10-13T15:11:54;27.50;;;26.20;;
908;SDS011;441;51.192;6.788;2023-10-13T15:14:21;27.40;;;26.00;;
908;SDS011;441;51.192;6.788;2023-10-13T15:16:50;26.80;;;25.50;;
908;SDS011;441;51.192;6.788;2023-10-13T15:19:18;25.33;;;24.13;;
908;SDS011;441;51.192;6.788;2023-10-13T15:21:45;26.20;;;25.00;;
908;SDS011;441;51.192;6.788;2023-10-13T15:24:15;28.40;;;26.20;;
908;SDS011;441;51.192;6.788;2023-10-13T15:26:43;26.37;;;25.17;;
908;SDS011;441;51.192;6.788;2023-10-13T15:29:13;25.97;;;24.63;;
908;SDS011;441;51.192;6.788;2023-10-13T15:31:41;24.43;;;23.33;;
908;SDS011;441;51.192;6.788;2023-10-13T15:34:20;25.90;;;24.80;;
908;SDS011;441;51.192;6.788;2023-10-13T15:36:48;26.47;;;25.37;;
908;SDS011;441;51.192;6.788;2023-10-13T15:39:17;27.53;;;25.80;;
908;SDS011;441;51.192;6.788;2023-10-13T15:41:49;26.90;;;25.60;;
908;SDS011;441;51.192;6.788;2023-10-13T15:44:18;27.40;;;25.90;;
908;SDS011;441;51.192;6.788;2023-10-13T15:46:49;25.93;;;24.80;;
908;SDS011;441;51.192;6.788;2023-10-13T15:49:20;26.70;;;25.40;;
908;SDS011;441;51.192;6.788;2023-10-13T15:51:47;29.10;;;27.80;;
908;SDS011;441;51.192;6.788;2023-10-13T15:54:15;29.00;;;27.30;;
908;SDS011;441;51.192;6.788;2023-10-13T15:56:43;29.07;;;27.30;;
908;SDS011;441;51.192;6.788;2023-10-13T15:59:11;29.97;;;28.60;;
908;SDS011;441;51.192;6.788;2023-10-13T16:01:38;30.17;;;28.00;;